createdAt,value
2023-02-19T00:02:59.954Z,96545.75
2023-02-19T00:14:27.018Z,96544.36
2023-02-19T00:25:51.864Z,96549.06
2023-02-19T00:37:16.680Z,96556.38
2023-02-19T00:48:41.713Z,96569.27
2023-02-19T01:00:06.504Z,96579.71
2023-02-19T01:11:31.306Z,96573.29
2023-02-19T01:22:45.076Z,96571.02
2023-02-19T01:34:09.895Z,96567.86
2023-02-19T01:45:33.025Z,96541.67
2023-02-19T01:56:57.727Z,96531.92
2023-02-19T02:08:21.267Z,96522.16
2023-02-19T02:19:54.850Z,96515.38
2023-02-19T02:31:29.712Z,96504.22
2023-02-19T02:42:56.187Z,96500.23
2023-02-19T02:54:41.056Z,96488.20
2023-02-19T03:06:13.041Z,96475.14
2023-02-19T03:17:36.229Z,96462.77
2023-02-19T03:28:59.623Z,96457.20
2023-02-19T03:40:25.640Z,96438.23
2023-02-19T03:52:02.862Z,96433.19
2023-02-19T04:03:29.153Z,96419.78
2023-02-19T04:14:59.445Z,96413.69
2023-02-19T04:26:24.161Z,96410.20
2023-02-19T04:37:37.658Z,96397.31
2023-02-19T04:48:51.474Z,96368.59
2023-02-19T04:59:57.891Z,96361.10
2023-02-19T05:11:22.684Z,96357.95
2023-02-19T05:22:36.301Z,96352.39
2023-02-19T05:33:54.417Z,96348.58
2023-02-19T05:45:11.247Z,96332.05
2023-02-19T05:56:36.073Z,96327.51
2023-02-19T06:07:44.189Z,96323.50
2023-02-19T06:18:57.850Z,96328.02
2023-02-19T06:29:47.976Z,96338.46
2023-02-19T06:41:13.191Z,96333.42
2023-02-19T06:52:20.942Z,96315.52
2023-02-19T07:03:46.582Z,96311.14
2023-02-19T07:14:58.900Z,96313.21
2023-02-19T07:26:04.093Z,96306.40
2023-02-19T07:37:28.064Z,96300.26
2023-02-19T07:48:43.018Z,96293.89
2023-02-19T08:00:07.904Z,96294.50
2023-02-19T08:11:31.497Z,96303.17
2023-02-19T08:22:56.725Z,96304.13
2023-02-19T08:34:21.692Z,96298.55
2023-02-19T08:45:47.298Z,96300.91
2023-02-19T08:57:06.334Z,96298.39
2023-02-19T09:08:16.746Z,96298.45
2023-02-19T09:19:34.547Z,96298.11
2023-02-19T09:30:49.710Z,96294.91
2023-02-19T09:42:13.504Z,96287.46
2023-02-19T09:53:39.116Z,96291.08
2023-02-19T10:04:45.808Z,96290.47
2023-02-19T10:16:11.047Z,96303.96
2023-02-19T10:27:29.227Z,96308.93
2023-02-19T10:38:37.981Z,96317.00
2023-02-19T10:50:16.808Z,96311.33
2023-02-19T11:01:35.263Z,96311.89
2023-02-19T11:12:01.478Z,96315.88
2023-02-19T11:23:36.011Z,96331.30
2023-02-19T11:35:16.282Z,96355.86
2023-02-19T11:46:54.211Z,96363.02
2023-02-19T11:58:36.105Z,96362.48
2023-02-19T12:10:29.058Z,96387.47
2023-02-19T12:22:09.943Z,96423.06
2023-02-19T12:33:40.768Z,96437.38
2023-02-19T12:45:19.640Z,96441.55
2023-02-19T12:56:35.145Z,96450.96
2023-02-19T13:08:15.953Z,96469.39
2023-02-19T13:19:46.905Z,96477.20
2023-02-19T13:31:11.028Z,96489.02
2023-02-19T13:41:32.898Z,96506.24
2023-02-19T13:52:34.340Z,96532.85
2023-02-19T14:04:09.704Z,96561.33
2023-02-19T14:15:35.421Z,96572.08
2023-02-19T14:27:06.955Z,96578.67
2023-02-19T14:38:41.285Z,96593.39
2023-02-19T14:50:21.187Z,96617.94
2023-02-19T15:01:53.394Z,96647.27
2023-02-19T15:13:09.429Z,96679.55
2023-02-19T15:24:28.303Z,96709.27
2023-02-19T15:35:47.373Z,96725.20
2023-02-19T15:47:11.717Z,96746.52
2023-02-19T15:58:32.598Z,96771.61
2023-02-19T16:09:41.474Z,96782.52
2023-02-19T16:21:00.904Z,96807.96
2023-02-19T16:32:30.916Z,96828.45
2023-02-19T16:44:09.205Z,96857.56
2023-02-19T16:55:37.107Z,96880.67
2023-02-19T17:06:50.970Z,96900.12
2023-02-19T17:18:10.346Z,96920.86
2023-02-19T17:29:29.148Z,96943.70
2023-02-19T17:41:05.854Z,96972.90
2023-02-19T17:52:35.105Z,96987.14
2023-02-19T18:03:29.665Z,97003.23
2023-02-19T18:14:51.980Z,97014.48
2023-02-19T18:26:20.742Z,97033.05
2023-02-19T18:37:38.732Z,97045.39
2023-02-19T18:48:54.226Z,97071.52
2023-02-19T19:00:14.420Z,97087.39
2023-02-19T19:11:43.120Z,97104.29
2023-02-19T19:23:11.874Z,97115.34
2023-02-19T19:34:32.960Z,97132.08
2023-02-19T19:46:00.726Z,97138.93
2023-02-19T19:57:18.815Z,97147.14
2023-02-19T20:08:49.938Z,97146.86
2023-02-19T20:20:19.074Z,97166.30
2023-02-19T20:31:47.645Z,97183.49
2023-02-19T20:43:07.314Z,97187.55
2023-02-19T20:53:53.331Z,97199.98
2023-02-19T21:05:12.501Z,97198.34
2023-02-19T21:16:23.734Z,97219.61
2023-02-19T21:27:50.881Z,97231.73
2023-02-19T21:39:07.036Z,97253.98
2023-02-19T21:50:18.328Z,97270.88
2023-02-19T22:01:34.123Z,97288.08
2023-02-19T22:13:00.835Z,97289.45
2023-02-19T22:24:26.136Z,97280.58
2023-02-19T22:35:40.059Z,97301.48
2023-02-19T22:46:58.135Z,97307.52
2023-02-19T22:58:23.106Z,97316.72
2023-02-19T23:09:55.254Z,97337.33
2023-02-19T23:21:20.169Z,97344.37
2023-02-19T23:32:45.397Z,97344.91
2023-02-19T23:44:10.408Z,97362.99
2023-02-19T23:55:35.630Z,97358.78
